Impacts TAF Board INFO
FOR SITUATIONAL AWARENESS. NOT TO BE USED FOR FLIGHT PLANNING PURPOSES.
IDs:

KSAN - San Diego Intl Arpt, CA, US

Issued at 0306 UTC 22 Jun 2018
Updated at 0313 UTC 22 Jun 2018
Potential Impact None Slight Moderate High
Time<<22/16Z 22/17Z 22/18Z 22/19Z 22/20Z 22/21Z 22/22Z 22/23Z 23/00Z 23/01Z 23/02Z 23/03Z 23/04Z>>
Type PRVL PRVL PRVL PRVL PRVL PRVL PRVL PRVL PRVL PRVL PRVL PRVL PRVL
VIS 5 >6 >6 >6 >6 >6 >6 >6 >6 >6 >6 >6 >6
CIG 8 11 11 -- -- -- -- -- -- -- -- -- 10
Cover OVC OVC OVC SCT SCT SCT SCT SCT SCT SCT SCT SCT BKN
FltCat IFR MVFR MVFR VFR VFR VFR VFR VFR VFR VFR VFR VFR MVFR
WX BR -- -- -- -- -- -- -- -- -- -- -- --
WDir VRB VRB VRB 260 260 260 260 260 260 270 270 270 VRB
WSpd 3 4 4 10 10 10 10 10 10 5 5 5 4
WGst -- -- -- -- -- -- -- -- -- -- -- -- --

Raw TAF
KSAN 220306Z 2203/2306 25005KT P6SM OVC011
  FM220900 VRB03KT 5SM BR OVC008
  FM221700 VRB04KT P6SM OVC011
  FM221900 26010KT P6SM SCT012
  FM230100 27005KT P6SM SCT012
  FM230400 VRB04KT P6SM BKN010


METAR Board
Radar Display
Forecast Discussion

FOR SITUATIONAL AWARENESS. NOT TO BE USED FOR FLIGHT PLANNING PURPOSES.